Weather at Kaya Airport

Public forecast

Using degrees Celsius for public forecast. Weather courtesy of forecast.io.

Closest aviation weather report (METAR) to Kaya Airport

Report is more than 2 hours old.

Closest report is Ouagadougou Airport, 49.2 nm (91.1 km) SSW. Retrieved 2020/10/21 10:00 UTC (3 hours ago):

DFFD 211000Z 25006KT 210V280 CAVOK 31/23 Q1014 NOSIG

Closest aviation forecast (TAF) to Kaya Airport

Closest forecast is Ouagadougou Airport, 49.2 nm (91.1 km) SSW. Retrieved 2020/10/21 12:51 UTC (0 seconds ago):

TAF DFFD 211100Z 2112/2218 24008KT 9999 FEW026 TEMPO 2116/2124 TS SCT026 FEW036CB